createdAt,value
2019-05-29T00:02:24.400Z,15.16
2019-05-29T00:04:57.079Z,15.13
2019-05-29T00:07:30.070Z,15.08
2019-05-29T00:10:02.895Z,15.05
2019-05-29T00:12:35.933Z,15.01
2019-05-29T00:15:08.766Z,14.98
2019-05-29T00:17:42.214Z,14.95
2019-05-29T00:20:14.895Z,14.92
2019-05-29T00:22:47.782Z,14.90
2019-05-29T00:25:20.156Z,14.85
2019-05-29T00:27:52.739Z,14.83
2019-05-29T00:30:25.619Z,14.83
2019-05-29T00:32:58.274Z,14.82
2019-05-29T00:35:30.971Z,14.81
2019-05-29T00:38:03.780Z,14.79
2019-05-29T00:40:36.774Z,14.75
2019-05-29T00:43:11.188Z,14.74
2019-05-29T00:45:43.839Z,14.71
2019-05-29T00:48:16.296Z,14.69
2019-05-29T00:50:49.414Z,14.67
2019-05-29T00:53:21.951Z,14.67
2019-05-29T00:55:54.742Z,14.67
2019-05-29T00:58:27.545Z,14.64
2019-05-29T01:01:00.208Z,14.60
2019-05-29T01:03:33.093Z,14.60
2019-05-29T01:06:05.693Z,14.61
2019-05-29T01:08:38.611Z,14.61
2019-05-29T01:11:11.335Z,14.62
2019-05-29T01:13:45.140Z,14.60
2019-05-29T01:16:17.944Z,14.58
2019-05-29T01:18:51.653Z,14.55
2019-05-29T01:21:25.027Z,14.50
2019-05-29T01:23:57.706Z,14.44
2019-05-29T01:26:30.589Z,14.39
2019-05-29T01:29:03.493Z,14.30
2019-05-29T01:31:36.169Z,14.27
2019-05-29T01:34:09.036Z,14.26
2019-05-29T01:36:41.535Z,14.25
2019-05-29T01:39:15.136Z,14.27
2019-05-29T01:41:47.607Z,14.26
2019-05-29T01:44:21.454Z,14.23
2019-05-29T01:46:54.097Z,14.24
2019-05-29T01:49:28.035Z,14.25
2019-05-29T01:52:00.779Z,14.27
2019-05-29T01:54:33.549Z,14.27
2019-05-29T01:57:06.338Z,14.20
2019-05-29T01:59:38.913Z,14.08
2019-05-29T02:02:11.791Z,14.02
2019-05-29T02:04:44.247Z,13.99
2019-05-29T02:07:18.020Z,14.01
2019-05-29T02:09:50.632Z,14.03
2019-05-29T02:12:24.432Z,14.04
2019-05-29T02:14:56.828Z,14.05
2019-05-29T02:17:29.828Z,14.05
2019-05-29T02:20:02.558Z,14.07
2019-05-29T02:22:35.299Z,14.05
2019-05-29T02:25:09.469Z,13.98
2019-05-29T02:27:41.591Z,13.89
2019-05-29T02:30:14.054Z,13.85
2019-05-29T02:32:46.503Z,13.81
2019-05-29T02:35:20.270Z,13.83
2019-05-29T02:37:53.331Z,13.90
2019-05-29T02:40:27.937Z,14.05
2019-05-29T02:42:59.307Z,14.22
2019-05-29T02:45:52.868Z,14.34
2019-05-29T02:48:06.084Z,14.47
2019-05-29T02:50:38.899Z,14.59
2019-05-29T02:53:11.541Z,14.66
2019-05-29T02:55:44.203Z,14.72
2019-05-29T02:58:17.002Z,14.76
2019-05-29T03:00:52.841Z,14.83
2019-05-29T03:03:26.537Z,14.91
2019-05-29T03:05:59.629Z,15.02
2019-05-29T03:08:34.152Z,15.08
2019-05-29T03:11:06.444Z,15.13
2019-05-29T03:13:39.274Z,15.20
2019-05-29T03:16:13.168Z,15.27
2019-05-29T03:18:46.110Z,15.33
2019-05-29T03:21:19.226Z,15.40
2019-05-29T03:23:51.883Z,15.50
2019-05-29T03:26:26.920Z,15.58
2019-05-29T03:28:57.984Z,15.67
2019-05-29T03:31:37.661Z,15.75
2019-05-29T03:34:04.554Z,15.84
2019-05-29T03:36:43.566Z,15.96
2019-05-29T03:39:11.439Z,16.06
2019-05-29T03:41:43.927Z,16.19
2019-05-29T03:44:16.710Z,16.30
2019-05-29T03:46:49.384Z,16.43
2019-05-29T03:49:22.535Z,16.55
2019-05-29T03:51:54.800Z,16.68
2019-05-29T03:54:28.765Z,16.83
2019-05-29T03:57:02.354Z,16.97
2019-05-29T03:59:36.904Z,17.11
2019-05-29T04:02:09.265Z,17.26
2019-05-29T04:04:41.929Z,17.38
2019-05-29T04:07:15.329Z,17.50
2019-05-29T04:09:47.800Z,17.63
2019-05-29T04:12:20.642Z,17.77
2019-05-29T04:14:54.898Z,17.90
2019-05-29T04:17:29.765Z,18.02
2019-05-29T04:20:02.904Z,18.14
2019-05-29T04:22:38.419Z,18.26
2019-05-29T04:25:10.944Z,18.35
2019-05-29T04:27:44.136Z,18.49
2019-05-29T04:30:16.813Z,18.62
2019-05-29T04:32:49.578Z,18.73
2019-05-29T04:35:22.180Z,18.85
2019-05-29T04:37:54.958Z,18.94
2019-05-29T04:40:28.603Z,19.04
2019-05-29T04:43:01.355Z,19.13
2019-05-29T04:45:39.133Z,19.22
2019-05-29T04:48:15.854Z,19.33
2019-05-29T04:50:48.874Z,19.44
2019-05-29T04:53:21.375Z,19.53
2019-05-29T04:55:54.259Z,19.64
2019-05-29T04:58:26.935Z,19.73
2019-05-29T05:00:59.794Z,19.86
2019-05-29T05:03:33.221Z,19.95
2019-05-29T05:06:06.805Z,20.04
2019-05-29T05:08:39.875Z,20.13
2019-05-29T05:11:12.896Z,20.20
2019-05-29T05:13:46.495Z,20.38
2019-05-29T05:16:19.389Z,20.38
2019-05-29T05:18:51.960Z,20.47
2019-05-29T05:21:24.841Z,20.54
2019-05-29T05:23:57.527Z,20.63
2019-05-29T05:26:30.304Z,20.73
2019-05-29T05:29:05.324Z,20.82
2019-05-29T05:31:38.573Z,20.88
2019-05-29T05:34:11.359Z,20.99
2019-05-29T05:36:43.873Z,21.09
2019-05-29T05:39:16.660Z,21.20
2019-05-29T05:41:49.474Z,21.30
2019-05-29T05:44:22.032Z,21.40
2019-05-29T05:46:54.726Z,21.52
2019-05-29T05:49:27.174Z,21.60
2019-05-29T05:52:00.902Z,21.70
2019-05-29T05:54:33.755Z,21.82
2019-05-29T05:57:06.342Z,21.91
2019-05-29T05:59:39.982Z,22.02
2019-05-29T06:02:13.814Z,22.14
2019-05-29T06:04:47.869Z,22.25
2019-05-29T06:07:21.218Z,22.37
2019-05-29T06:09:53.961Z,22.44
2019-05-29T06:12:27.950Z,22.52
2019-05-29T06:15:00.042Z,22.59
2019-05-29T06:17:32.388Z,22.71
2019-05-29T06:20:07.827Z,22.80
2019-05-29T06:22:41.164Z,22.90
2019-05-29T06:25:14.170Z,23.01
2019-05-29T06:27:46.787Z,23.10
2019-05-29T06:30:19.898Z,23.21
2019-05-29T06:32:53.091Z,23.31
2019-05-29T06:35:25.666Z,23.40
2019-05-29T06:37:58.636Z,23.52
2019-05-29T06:40:40.221Z,23.56
2019-05-29T06:43:23.876Z,23.66
2019-05-29T06:45:57.590Z,23.74
2019-05-29T06:48:42.923Z,23.80
2019-05-29T06:51:05.946Z,23.87
2019-05-29T06:53:37.892Z,23.96
2019-05-29T06:56:10.274Z,24.00
2019-05-29T06:58:44.336Z,24.04
2019-05-29T07:01:16.921Z,24.11
2019-05-29T07:03:49.612Z,24.19
2019-05-29T07:06:22.478Z,24.28
2019-05-29T07:08:55.365Z,24.38
2019-05-29T07:11:28.274Z,24.50
2019-05-29T07:14:00.741Z,24.53
2019-05-29T07:16:43.590Z,24.60
2019-05-29T07:19:25.318Z,24.65
2019-05-29T07:21:42.962Z,24.71
2019-05-29T07:24:16.898Z,24.79
2019-05-29T07:26:49.270Z,24.84
2019-05-29T07:29:22.036Z,24.88
2019-05-29T07:31:55.236Z,24.95
2019-05-29T07:34:28.114Z,25.07
2019-05-29T07:37:00.805Z,25.17
2019-05-29T07:39:33.457Z,25.23
2019-05-29T07:42:06.034Z,25.26
2019-05-29T07:44:39.908Z,25.28
2019-05-29T07:47:12.644Z,25.33
2019-05-29T07:49:47.165Z,25.35
2019-05-29T07:52:19.739Z,25.39
2019-05-29T07:54:52.481Z,25.43
2019-05-29T07:57:24.985Z,25.47
2019-05-29T07:59:57.676Z,25.51
2019-05-29T08:02:30.262Z,25.54
2019-05-29T08:05:03.021Z,25.54
2019-05-29T08:07:35.598Z,25.55
2019-05-29T08:10:08.682Z,25.55
2019-05-29T08:12:46.383Z,25.58
2019-05-29T08:15:15.395Z,25.62
2019-05-29T08:17:48.275Z,25.68
2019-05-29T08:20:20.953Z,25.78
2019-05-29T08:22:53.741Z,25.84
2019-05-29T08:25:26.569Z,25.93
2019-05-29T08:27:59.509Z,25.98
2019-05-29T08:30:32.393Z,26.05
2019-05-29T08:33:05.265Z,26.12
2019-05-29T08:35:37.631Z,26.17
2019-05-29T08:38:10.413Z,26.29
2019-05-29T08:40:43.079Z,26.35
2019-05-29T08:43:15.690Z,26.41
2019-05-29T08:45:49.604Z,26.46
2019-05-29T08:48:22.055Z,26.53
2019-05-29T08:50:55.453Z,26.55
2019-05-29T08:53:28.151Z,26.55
2019-05-29T08:56:00.712Z,26.62
2019-05-29T08:58:37.002Z,26.66
2019-05-29T09:01:07.628Z,26.72
2019-05-29T09:03:40.290Z,26.73
2019-05-29T09:06:13.828Z,26.80
2019-05-29T09:08:48.086Z,26.87
2019-05-29T09:11:20.675Z,26.93
2019-05-29T09:13:53.181Z,26.98
2019-05-29T09:16:25.958Z,27.02
2019-05-29T09:18:58.612Z,27.07
2019-05-29T09:21:31.419Z,27.13
2019-05-29T09:24:04.196Z,27.17
2019-05-29T09:26:37.083Z,27.19
2019-05-29T09:29:09.738Z,27.23
2019-05-29T09:31:42.423Z,27.25
2019-05-29T09:34:16.600Z,27.25
2019-05-29T09:36:49.405Z,27.30
2019-05-29T09:39:22.804Z,27.33
2019-05-29T09:41:55.297Z,27.38
2019-05-29T09:44:38.002Z,27.47
2019-05-29T09:47:02.101Z,27.56
2019-05-29T09:49:34.611Z,27.63
2019-05-29T09:52:07.359Z,27.68
2019-05-29T09:54:40.164Z,27.70
2019-05-29T09:57:15.317Z,27.71
2019-05-29T09:59:46.937Z,27.74
2019-05-29T10:02:19.822Z,27.74
2019-05-29T10:04:53.131Z,27.79
2019-05-29T10:07:26.500Z,27.84
2019-05-29T10:10:00.600Z,27.92
2019-05-29T10:12:33.404Z,27.96
2019-05-29T10:15:08.342Z,28.05
2019-05-29T10:17:40.910Z,28.16
2019-05-29T10:20:15.426Z,28.27
2019-05-29T10:22:47.629Z,28.30
2019-05-29T10:25:20.285Z,28.33
2019-05-29T10:27:52.976Z,28.40
2019-05-29T10:30:26.037Z,28.39
2019-05-29T10:32:58.628Z,28.35
2019-05-29T10:35:31.295Z,28.33
2019-05-29T10:38:03.874Z,28.37
2019-05-29T10:40:36.873Z,28.42
2019-05-29T10:43:09.549Z,28.44
2019-05-29T10:45:43.457Z,28.45
2019-05-29T10:48:16.343Z,28.53
2019-05-29T10:50:50.967Z,28.57
2019-05-29T10:53:23.145Z,28.58
2019-05-29T10:55:55.820Z,28.61
2019-05-29T10:58:28.405Z,28.60
2019-05-29T11:01:00.873Z,28.64
2019-05-29T11:03:33.530Z,28.65
2019-05-29T11:06:06.108Z,28.63
2019-05-29T11:08:38.891Z,28.65
2019-05-29T11:11:11.385Z,28.68
2019-05-29T11:13:43.940Z,28.75
2019-05-29T11:16:16.846Z,28.75
2019-05-29T11:18:49.516Z,28.72
2019-05-29T11:21:22.102Z,28.81
2019-05-29T11:23:55.917Z,28.96
2019-05-29T11:26:28.471Z,28.97
2019-05-29T11:29:01.262Z,28.96
2019-05-29T11:31:33.932Z,28.98
2019-05-29T11:34:06.535Z,29.12
2019-05-29T11:36:39.314Z,29.22
2019-05-29T11:39:12.403Z,29.30
2019-05-29T11:41:46.181Z,29.37
2019-05-29T11:44:17.767Z,29.45
2019-05-29T11:46:50.200Z,29.48
2019-05-29T11:49:23.118Z,29.60
2019-05-29T11:52:18.620Z,29.66
2019-05-29T11:54:29.911Z,29.74
2019-05-29T11:57:03.284Z,29.75
2019-05-29T11:59:35.983Z,29.84
2019-05-29T12:02:09.081Z,29.94
2019-05-29T12:04:41.657Z,30.04
2019-05-29T12:07:14.135Z,30.09
2019-05-29T12:09:47.066Z,30.09
2019-05-29T12:12:19.714Z,30.13
2019-05-29T12:15:06.171Z,30.12
2019-05-29T12:17:27.272Z,29.99
2019-05-29T12:20:02.383Z,29.91
2019-05-29T12:22:34.175Z,29.80
2019-05-29T12:25:07.252Z,29.78
2019-05-29T12:27:39.650Z,29.88
2019-05-29T12:30:13.361Z,29.94
2019-05-29T12:32:46.573Z,30.11
2019-05-29T12:35:19.701Z,30.32
2019-05-29T12:37:53.137Z,30.62
2019-05-29T12:40:25.994Z,30.70
2019-05-29T12:43:00.078Z,30.79
2019-05-29T12:45:33.095Z,30.86
2019-05-29T12:48:12.333Z,30.78
2019-05-29T12:50:40.314Z,30.66
2019-05-29T12:53:29.022Z,30.62
2019-05-29T12:55:47.131Z,30.58
2019-05-29T12:58:19.582Z,30.55
2019-05-29T13:00:52.283Z,30.48
2019-05-29T13:03:25.066Z,30.43
2019-05-29T13:05:58.201Z,30.25
2019-05-29T13:08:30.963Z,30.14
2019-05-29T13:11:05.078Z,30.12
2019-05-29T13:13:37.722Z,30.16
2019-05-29T13:16:10.286Z,30.24
2019-05-29T13:18:42.966Z,30.30
2019-05-29T13:21:15.599Z,30.46
2019-05-29T13:23:48.341Z,30.78
2019-05-29T13:26:21.121Z,31.16
2019-05-29T13:28:53.801Z,31.41
2019-05-29T13:31:26.359Z,31.56
2019-05-29T13:33:59.961Z,31.71
2019-05-29T13:36:31.862Z,31.85
2019-05-29T13:39:06.464Z,31.94
2019-05-29T13:41:39.048Z,32.16
2019-05-29T13:44:11.917Z,31.95
2019-05-29T13:46:44.595Z,32.14
2019-05-29T13:49:17.389Z,32.43
2019-05-29T13:51:50.357Z,32.80
2019-05-29T13:54:25.013Z,32.96
2019-05-29T13:56:59.601Z,33.23
2019-05-29T13:59:32.819Z,33.45
2019-05-29T14:02:06.731Z,33.57
2019-05-29T14:04:40.046Z,33.78
2019-05-29T14:07:12.712Z,33.90
2019-05-29T14:09:47.330Z,34.13
2019-05-29T14:12:19.382Z,34.37
2019-05-29T14:14:51.970Z,34.71
2019-05-29T14:17:24.753Z,34.92
2019-05-29T14:19:57.416Z,35.26
2019-05-29T14:22:29.908Z,35.38
2019-05-29T14:25:03.147Z,35.40
2019-05-29T14:27:35.453Z,35.63
2019-05-29T14:30:10.216Z,35.88
2019-05-29T14:32:42.473Z,36.01
2019-05-29T14:35:15.538Z,36.39
2019-05-29T14:37:48.132Z,36.01
2019-05-29T14:40:24.269Z,35.71
2019-05-29T14:42:56.958Z,35.52
2019-05-29T14:45:29.462Z,35.19
2019-05-29T14:48:02.162Z,35.34
2019-05-29T14:50:34.397Z,35.52
2019-05-29T14:53:07.430Z,35.60
2019-05-29T14:55:40.252Z,35.35
2019-05-29T14:58:13.938Z,35.36
2019-05-29T15:00:47.987Z,35.53
2019-05-29T15:03:19.878Z,35.81
2019-05-29T15:05:52.000Z,35.95
2019-05-29T15:08:24.802Z,36.06
2019-05-29T15:10:57.383Z,36.17
2019-05-29T15:13:29.358Z,36.16
2019-05-29T15:16:04.491Z,36.21
2019-05-29T15:18:37.163Z,36.29
2019-05-29T15:21:10.964Z,36.29
2019-05-29T15:23:43.647Z,36.35
2019-05-29T15:26:16.340Z,36.23
2019-05-29T15:28:48.900Z,35.68
2019-05-29T15:31:22.101Z,35.88
2019-05-29T15:33:54.034Z,35.87
2019-05-29T15:36:26.321Z,35.93
2019-05-29T15:38:58.300Z,36.08
2019-05-29T15:41:30.556Z,36.03
2019-05-29T15:44:03.449Z,35.97
2019-05-29T15:46:36.118Z,35.80
2019-05-29T15:49:10.988Z,35.52
2019-05-29T15:51:43.746Z,35.37
2019-05-29T15:54:17.675Z,35.15
2019-05-29T15:56:49.522Z,34.75
2019-05-29T15:59:21.755Z,34.43
2019-05-29T16:01:54.459Z,34.10
2019-05-29T16:04:27.253Z,33.22
2019-05-29T16:06:59.801Z,32.32
2019-05-29T16:09:32.594Z,31.51
2019-05-29T16:12:05.157Z,30.78
2019-05-29T16:14:37.836Z,30.14
2019-05-29T16:17:11.011Z,29.60
2019-05-29T16:19:43.528Z,29.07
2019-05-29T16:22:19.274Z,28.57
2019-05-29T16:24:51.954Z,28.16
2019-05-29T16:27:30.086Z,27.88
2019-05-29T16:32:29.890Z,27.37
2019-05-29T16:35:02.647Z,27.15
2019-05-29T16:37:35.360Z,26.92
2019-05-29T16:40:12.136Z,26.76
2019-05-29T16:42:44.595Z,26.57
2019-05-29T16:45:20.552Z,26.41
2019-05-29T16:47:53.029Z,26.24
2019-05-29T16:50:25.607Z,26.09
2019-05-29T16:52:58.183Z,25.95
2019-05-29T16:55:30.659Z,25.86
2019-05-29T16:58:03.445Z,25.71
2019-05-29T17:00:36.225Z,25.62
2019-05-29T17:03:08.905Z,25.46
2019-05-29T17:05:41.786Z,25.29
2019-05-29T17:08:14.444Z,25.09
2019-05-29T17:10:47.142Z,24.88
2019-05-29T17:13:20.660Z,24.69
2019-05-29T17:15:53.322Z,24.51
2019-05-29T17:18:26.104Z,24.35
2019-05-29T17:20:58.895Z,24.20
2019-05-29T17:23:31.568Z,24.05
2019-05-29T17:26:10.843Z,23.90
2019-05-29T17:28:38.582Z,23.75
2019-05-29T17:31:11.249Z,23.61
2019-05-29T17:33:43.907Z,23.48
2019-05-29T17:36:16.871Z,23.37
2019-05-29T17:38:49.539Z,23.27
2019-05-29T17:41:23.502Z,23.17
2019-05-29T17:43:56.287Z,23.07
2019-05-29T17:46:28.957Z,23.01
2019-05-29T17:49:01.651Z,22.95
2019-05-29T17:51:34.325Z,22.89
2019-05-29T17:54:07.109Z,22.84
2019-05-29T17:56:39.927Z,22.77
2019-05-29T17:59:12.676Z,22.72
2019-05-29T18:01:45.660Z,22.69
2019-05-29T18:04:18.447Z,22.64
2019-05-29T18:06:50.893Z,22.58
2019-05-29T18:09:27.026Z,22.56
2019-05-29T18:11:57.696Z,22.53
2019-05-29T18:14:30.598Z,22.50
2019-05-29T18:17:03.577Z,22.48
2019-05-29T18:19:37.586Z,22.45
2019-05-29T18:22:10.267Z,22.41
2019-05-29T18:24:42.740Z,22.35
2019-05-29T18:27:15.732Z,22.30
2019-05-29T18:29:48.399Z,22.19
2019-05-29T18:32:22.340Z,22.11
2019-05-29T18:34:56.638Z,22.03
2019-05-29T18:37:29.417Z,21.94
2019-05-29T18:40:02.182Z,21.85
2019-05-29T18:42:34.782Z,21.76
2019-05-29T18:45:20.370Z,21.69
2019-05-29T18:47:44.503Z,21.61
2019-05-29T18:50:17.703Z,21.53
2019-05-29T18:52:50.889Z,21.44
2019-05-29T18:55:24.823Z,21.35
2019-05-29T18:57:57.495Z,21.28
2019-05-29T19:00:31.529Z,21.18
2019-05-29T19:03:04.289Z,21.09
2019-05-29T19:05:36.999Z,21.01
2019-05-29T19:08:11.195Z,20.92
2019-05-29T19:10:44.087Z,20.86
2019-05-29T19:13:16.846Z,20.82
2019-05-29T19:15:50.180Z,20.78
2019-05-29T19:18:23.965Z,20.73
2019-05-29T19:20:58.033Z,20.69
2019-05-29T19:23:31.116Z,20.66
2019-05-29T19:26:03.746Z,20.62
2019-05-29T19:28:36.486Z,20.55
2019-05-29T19:31:10.653Z,20.49
2019-05-29T19:33:43.125Z,20.41
2019-05-29T19:36:15.779Z,20.34
2019-05-29T19:38:51.357Z,20.29
2019-05-29T19:41:24.316Z,20.24
2019-05-29T19:44:00.795Z,20.20
2019-05-29T19:46:52.259Z,20.16
2019-05-29T19:49:07.799Z,20.15
2019-05-29T19:51:40.577Z,20.12
2019-05-29T19:54:13.239Z,20.10
2019-05-29T19:56:45.750Z,20.10
2019-05-29T19:59:18.512Z,20.12
2019-05-29T20:01:52.830Z,20.12
2019-05-29T20:04:26.636Z,20.10
2019-05-29T20:07:01.878Z,20.10
2019-05-29T20:09:35.418Z,20.11
2019-05-29T20:12:07.971Z,20.08
2019-05-29T20:14:40.340Z,20.06
2019-05-29T20:17:12.690Z,20.02
2019-05-29T20:19:46.717Z,20.00
2019-05-29T20:22:18.784Z,19.98
2019-05-29T20:24:50.992Z,19.95
2019-05-29T20:27:23.634Z,19.91
2019-05-29T20:29:56.538Z,19.88
2019-05-29T20:32:30.454Z,19.87
2019-05-29T20:35:04.795Z,19.83
2019-05-29T20:37:38.377Z,19.78
2019-05-29T20:40:11.442Z,19.74
2019-05-29T20:42:44.208Z,19.71
2019-05-29T20:45:16.783Z,19.71
2019-05-29T20:47:49.666Z,19.71
2019-05-29T20:50:22.659Z,19.69
2019-05-29T20:52:55.551Z,19.70
2019-05-29T20:55:28.325Z,19.71
2019-05-29T20:58:00.896Z,19.69
2019-05-29T21:00:36.108Z,19.70
2019-05-29T21:03:08.716Z,19.69
2019-05-29T21:05:42.853Z,19.66
2019-05-29T21:08:15.736Z,19.65
2019-05-29T21:10:48.484Z,19.61
2019-05-29T21:13:21.266Z,19.60
2019-05-29T21:15:54.045Z,19.59
2019-05-29T21:18:26.939Z,19.57
2019-05-29T21:21:00.019Z,19.57
2019-05-29T21:23:32.610Z,19.56
2019-05-29T21:26:05.604Z,19.56
2019-05-29T21:28:44.430Z,19.57
2019-05-29T21:31:13.150Z,19.60
2019-05-29T21:33:49.234Z,19.61
2019-05-29T21:36:21.831Z,19.61
2019-05-29T21:38:54.036Z,19.64
2019-05-29T21:41:26.985Z,19.69
2019-05-29T21:44:01.533Z,19.69
2019-05-29T21:46:34.953Z,19.70
2019-05-29T21:49:07.686Z,19.69
2019-05-29T21:51:41.506Z,19.67
2019-05-29T21:54:14.069Z,19.61
2019-05-29T21:56:47.888Z,19.55
2019-05-29T21:59:20.468Z,19.54
2019-05-29T22:01:53.344Z,19.52
2019-05-29T22:04:25.933Z,19.48
2019-05-29T22:06:58.407Z,19.41
2019-05-29T22:09:31.497Z,19.34
2019-05-29T22:12:04.973Z,19.28
2019-05-29T22:14:38.687Z,19.25
2019-05-29T22:17:12.284Z,19.21
2019-05-29T22:19:45.185Z,19.19
2019-05-29T22:22:17.765Z,19.14
2019-05-29T22:24:51.141Z,19.10
2019-05-29T22:27:23.824Z,19.05
2019-05-29T22:29:57.364Z,19.04
2019-05-29T22:32:30.050Z,19.05
2019-05-29T22:35:02.907Z,19.03
2019-05-29T22:37:35.489Z,19.00
2019-05-29T22:40:09.407Z,18.96
2019-05-29T22:43:03.355Z,18.93
2019-05-29T22:45:35.943Z,18.91
2019-05-29T22:48:09.138Z,18.88
2019-05-29T22:50:42.022Z,18.88
2019-05-29T22:53:15.389Z,18.88
2019-05-29T22:55:48.102Z,18.85
2019-05-29T22:58:21.086Z,18.84
2019-05-29T23:00:54.204Z,18.82
2019-05-29T23:03:27.489Z,18.73
2019-05-29T23:06:00.473Z,18.67
2019-05-29T23:08:33.665Z,18.65
2019-05-29T23:11:06.637Z,18.63
2019-05-29T23:13:39.425Z,18.61
2019-05-29T23:16:12.412Z,18.58
2019-05-29T23:18:45.498Z,18.54
2019-05-29T23:21:18.473Z,18.50
2019-05-29T23:23:51.557Z,18.41
2019-05-29T23:26:24.153Z,18.37
2019-05-29T23:28:56.917Z,18.34
2019-05-29T23:31:30.715Z,18.30
2019-05-29T23:34:03.667Z,18.25
2019-05-29T23:36:36.108Z,18.26
2019-05-29T23:39:10.316Z,18.26
2019-05-29T23:41:44.353Z,18.21
2019-05-29T23:44:16.965Z,18.17
2019-05-29T23:46:49.485Z,18.11
2019-05-29T23:49:23.269Z,18.08
2019-05-29T23:51:55.966Z,18.06
2019-05-29T23:54:28.758Z,18.01
2019-05-29T23:57:01.982Z,18.00
2019-05-29T23:59:34.622Z,17.96
